• Join FlightAware (Why Join?)
  • Login
  • US Flag 
04:40PM EST


 

Airport Tracker/Info


-or-


 

Live Flight TrackerFlight Track Log ✈ UPS1216 ✈ 26-Apr-2013 ✈ KRFD - KBWI

Flight Track Log - Related Links

Times and Time Zones

All times are in EDT time to prevent confusion due to time zone crossing. See the UPS1216 flight status page for this flight to view local times or setup timezone preferences in your user account.

Time Position Orientation Groundspeed Altitude Reporting Facility
EDT Latitude Longitude Course Direction KTS MPH feet Rate Location/Type
03:59AM 42.2000 -89.0910 90° East 164 189 1,100  Level FlightAware
03:59AM 42.2020 -89.0810 75° East 173 199 1,600 1,920 Climbing FlightAware
04:00AM 42.2020 -89.0660 90° East 193 222 1,900 1,733 Climbing FlightAware
04:00AM 42.2030 -89.0250 88° East 227 261 2,900 2,182 Climbing FlightAware
04:01AM 42.2040 -88.9850 88° East 251 289 3,900 2,509 Climbing FlightAware
04:01AM 42.2060 -88.9360 87° East 271 312 5,200 2,618 Climbing FlightAware
04:02AM 42.2070 -88.8950 88° East 283 326 6,300 2,727 Climbing FlightAware
04:02AM 42.2080 -88.8410 89° East 294 338 7,700 2,933 Climbing FlightAware
04:02AM 42.2090 -88.8110 87° East 298 343 8,500 3,000 Climbing FlightAware
04:03AM 42.2090 -88.7650 90° East 304 350 9,700 1,971 Climbing FlightAware
04:03AM 42.2110 -88.6720 88° East 352 405 10,800 1,624 Climbing FlightAware
04:04AM 42.2130 -88.5820 88° East 377 434 12,000 2,188 Climbing FlightAware
04:05AM 42.2150 -88.4720 89° East 389 448 13,900 2,400 Climbing FlightAware
04:06AM 42.2160 -88.3720 89° East 403 464 15,400 2,118 Climbing FlightAware
04:06AM 42.2180 -88.2590 89° East 417 480 16,900 2,047 Climbing FlightAware
04:07AM 42.2190 -88.1490 89° East 426 490 18,300 2,025 Climbing FlightAware
04:08AM 42.2210 -88.0400 89° East 435 501 19,600 1,765 Climbing FlightAware
04:08AM 42.2120 -87.9280 96° East 446 513 20,800 1,694 Climbing FlightAware
04:09AM 42.1760 -87.8180 114° Southeast 454 522 22,000 1,725 Climbing FlightAware
04:10AM 42.1380 -87.7130 116° Southeast 461 531 23,100 1,553 Climbing FlightAware
04:10AM 42.0980 -87.5990 115° Southeast 469 540 24,200 1,412 Climbing FlightAware
04:11AM 42.0580 -87.4880 116° Southeast 475 547 25,100 1,341 Climbing FlightAware
04:12AM 42.0160 -87.3690 115° Southeast 482 555 26,100 1,412 Climbing FlightAware
04:13AM 41.9760 -87.2570 116° Southeast 489 563 27,100 1,350 Climbing FlightAware
04:13AM 41.9390 -87.1540 116° Southeast 497 572 27,900 1,200 Climbing FlightAware
04:14AM 41.8920 -87.0240 116° Southeast 506 582 28,800 1,200 Climbing FlightAware
04:15AM 41.8500 -86.9090 116° Southeast 513 590 29,600 1,575 Climbing FlightAware
04:15AM 41.8080 -86.7940 116° Southeast 512 589 30,900 1,976 Climbing FlightAware
04:16AM 41.7600 -86.6620 116° Southeast 508 585 32,400 1,800 Climbing FlightAware
04:17AM 41.7150 -86.5380 116° Southeast 510 587 33,600 1,341 Climbing FlightAware
04:17AM 41.6720 -86.4230 117° Southeast 517 595 34,300 1,200 Climbing FlightAware
04:18AM 41.6220 -86.2880 116° Southeast 523 602 35,300 1,271 Climbing FlightAware
04:19AM 41.5790 -86.1710 116° Southeast 525 604 36,100 1,200 Climbing FlightAware
04:20AM 41.5370 -86.0520 115° Southeast 528 608 36,900 1,200 Climbing FlightAware
04:20AM 41.5050 -85.9120 107° East 528 608 37,800 1,271 Climbing FlightAware
04:21AM 41.4830 -85.7850 103° East 521 600 38,700 900 Climbing FlightAware
04:22AM 41.4610 -85.6620 103° East 517 595 39,000 212 Climbing FlightAware
04:22AM 41.4370 -85.5270 103° East 510 587 39,000  Level FlightAware
04:23AM 41.4140 -85.4010 104° East 504 580 39,000  Level FlightAware
04:24AM 41.3890 -85.2620 103° East 505 581 39,000  Level FlightAware
04:24AM 41.3710 -85.1620 103° East 506 582 39,000  Level FlightAware
04:25AM 41.3420 -85.0030 104° East 505 581 39,000  Level FlightAware
04:26AM 41.3240 -84.9050 104° East 504 580 39,000  Level FlightAware
04:27AM 41.2950 -84.7600 105° East 506 582 39,000  Level FlightAware
04:27AM 41.2610 -84.6240 108° East 507 583 39,000  Level FlightAware
04:28AM 41.2330 -84.5070 108° East 512 589 39,000  Level FlightAware
04:29AM 41.1920 -84.3780 113° Southeast 508 585 39,000  Level FlightAware
04:29AM 41.1580 -84.2590 111° Southeast 509 586 39,000  Level FlightAware
04:30AM 41.1250 -84.1400 110° East 510 587 39,000  Level FlightAware
04:31AM 41.0880 -84.0100 111° Southeast 511 588 39,000  Level FlightAware
04:31AM 41.0530 -83.8870 111° Southeast 511 588 39,000  Level FlightAware
04:32AM 41.0150 -83.7550 111° Southeast 514 592 39,000  Level FlightAware
04:33AM 40.9810 -83.6380 111° Southeast 514 592 39,000  Level FlightAware
04:33AM 40.9510 -83.5360 111° Southeast 515 593 39,000  Level FlightAware
04:34AM 40.9090 -83.3920 111° Southeast 517 595 39,000  Level FlightAware
04:35AM 40.8760 -83.2800 111° Southeast 518 596 39,000  Level FlightAware
04:36AM 40.8390 -83.1520 111° Southeast 519 597 39,000  Level FlightAware
04:36AM 40.7990 -83.0180 111° Southeast 521 600 39,000  Level FlightAware
04:37AM 40.7630 -82.8980 112° Southeast 522 601 39,000  Level FlightAware
04:38AM 40.7230 -82.7640 111° Southeast 522 601 39,000  Level FlightAware
04:38AM 40.6900 -82.6520 111° Southeast 522 601 39,000  Level FlightAware
04:39AM 40.6520 -82.5280 112° Southeast 522 601 39,000  Level FlightAware
04:40AM 40.6100 -82.3890 112° Southeast 521 600 39,000  Level FlightAware
04:41AM 40.5730 -82.2700 112° Southeast 521 600 39,000  Level FlightAware
04:41AM 40.5330 -82.1410 112° Southeast 520 598 39,000  Level FlightAware
04:42AM 40.4970 -82.0250 112° Southeast 519 597 39,000  Level FlightAware
04:43AM 40.4560 -81.8910 112° Southeast 520 598 39,000  Level FlightAware
04:43AM 40.4180 -81.7700 112° Southeast 518 596 39,000  Level FlightAware
04:44AM 40.3850 -81.6540 110° East 517 595 39,000  Level FlightAware
04:45AM 40.3500 -81.5230 109° East 516 594 39,000  Level FlightAware
04:45AM 40.3180 -81.4030 109° East 515 593 39,000  Level FlightAware
04:46AM 40.2870 -81.2870 109° East 514 592 39,000  Level FlightAware
04:47AM 40.2490 -81.1490 110° East 514 592 39,000  Level FlightAware
04:48AM 40.2180 -81.0330 109° East 514 592 39,000  Level FlightAware
04:48AM 40.1820 -80.9040 110° East 513 590 39,000  Level FlightAware
04:49AM 40.1500 -80.7890 110° East 511 588 39,000  Level FlightAware
04:50AM 40.1130 -80.6560 110° East 511 588 39,000  Level FlightAware
04:50AM 40.0800 -80.5410 111° Southeast 510 587 39,000  Level FlightAware
04:51AM 40.0470 -80.4240 110° East 510 587 39,000  Level FlightAware
04:52AM 40.0120 -80.2980 110° East 510 587 39,000  Level FlightAware
04:52AM 39.9790 -80.1840 111° Southeast 510 587 39,000  Level FlightAware
04:53AM 39.9460 -80.0680 110° East 510 587 39,000  Level FlightAware
04:54AM 39.9090 -79.9400 111° Southeast 509 586 39,000 -565 Level FlightAware
04:55AM 39.8750 -79.8220 111° Southeast 512 589 38,200 -1,950 Descending FlightAware
04:55AM 39.8420 -79.7070 110° East 516 594 36,400 -2,824 Descending FlightAware
04:56AM 39.8030 -79.5730 111° Southeast 523 602 34,200 -2,471 Descending FlightAware
04:57AM 39.7680 -79.4550 111° Southeast 509 586 32,900 -1,976 Descending FlightAware
04:57AM 39.7320 -79.3300 110° East 497 572 31,400 -1,976 Descending FlightAware
04:58AM 39.6980 -79.2180 112° Southeast 485 558 30,100 -2,025 Descending FlightAware
04:59AM 39.6670 -79.1090 110° East 476 548 28,700 -1,906 Descending FlightAware
04:59AM 39.6390 -78.9890 107° East 458 527 27,400 -1,667 Descending FlightAware
05:00AM 39.6130 -78.8700 106° East 442 509 26,200 -1,650 Descending FlightAware
05:01AM 39.5940 -78.7820 106° East 430 495 25,200 -1,624 Descending FlightAware
05:02AM 39.5670 -78.6600 106° East 415 478 23,900 -1,533 Descending FlightAware
05:02AM 39.5460 -78.5630 106° East 424 488 22,900 -1,575 Descending FlightAware
05:03AM 39.5240 -78.4650 106° East 421 484 21,800 -1,575 Descending FlightAware
05:04AM 39.5040 -78.3730 106° East 415 478 20,800 -1,543 Descending FlightAware
05:05AM 39.4680 -78.2110 106° East 387 445 19,100 -1,477 Descending FlightAware
05:06AM 39.4380 -78.0770 106° East 393 452 17,600 -1,486 Descending FlightAware
05:06AM 39.4230 -78.0100 106° East 392 451 16,500 -1,680 Descending FlightAware
05:07AM 39.4030 -77.9240 107° East 382 440 15,500 -1,500 Descending FlightAware
05:08AM 39.3900 -77.8370 101° East 360 414 14,500 -1,333 Descending FlightAware
05:09AM 39.4030 -77.7090 82° East 355 409 13,500 -1,200 Descending FlightAware
05:09AM 39.4150 -77.6180 80° East 347 399 12,700 -1,059 Descending FlightAware
05:10AM 39.4260 -77.5320 81° East 343 395 12,000 -1,059 Descending FlightAware
05:11AM 39.4370 -77.4410 81° East 346 398 11,200 -988 Descending FlightAware
05:11AM 39.4470 -77.3600 81° East 331 381 10,600 -450 Descending FlightAware
05:12AM 39.4460 -77.2830 91° East 333 383 10,600  Level FlightAware
05:13AM 39.4430 -77.1880 92° East 340 391 10,600  Level FlightAware
05:13AM 39.4390 -77.1070 94° East 340 391 10,600 -189 Level FlightAware
05:14AM 39.4260 -76.9950 99° East 325 374 10,300 -571 Descending FlightAware
05:15AM 39.4000 -76.9090 111° Southeast 300 345 9,600 -1,096 Descending FlightAware
05:16AM 39.3720 -76.8000 108° East 290 334 8,200 -1,234 Descending FlightAware
05:18AM 39.3060 -76.6510 120° Southeast 271 312 6,000 -1,178 Descending FlightAware
05:21AM 39.1500 -76.4860 141° Southeast 262 302 2,900 -1,133 Descending FlightAware
05:21AM 39.1340 -76.4840 174° South 253 291 2,600 -743 Descending FlightAware
05:23AM 39.0430 -76.5320 202° Southwest 210 242 1,600 -318 Descending FlightAware
05:24AM 39.0810 -76.5850 313° West 138 159 1,700  Climbing FlightAware
05:24AM 39.0950 -76.5980 324° Northwest 122 140 1,600 -360 Descending FlightAware
05:25AM 39.1040 -76.6070 322° Northwest 118 136 1,400 -267 Descending FlightAware
05:25AM 39.1150 -76.6170 325° Northwest 118 136 1,400 -700 Level FlightAware
05:26AM 39.1300 -76.6310 324° Northwest 118 136 700 -700 Descending FlightAware
05:26AM 39.1410 -76.6410 325° Northwest 118 136 700  Level FlightAware
05:34AM 39.1667 -76.6667 288° West  Level FlightAware Approximate